Estación municipal de Queralbs (Ripollès, P.N.de les capçaleres del Ter i el Freser)

Consulta los datos en tiempo real de la estación municipal de Queralbs





Hora UTC 20:55
Temperatura 7.1 ºC
Humedad 95.3 %
Pluja 9.6 mm
Velocidad viento 2.0 km/h
Dirección viento N

Datos diarios 2026-05-09



Hora UTC (invierno +1h; verano +2h)
Temperatura (ºC) Humedad (%) Velocidad viento (km/h) Precipitación (mm)
Hora UTC Aire Humedad Vel. Dir. Vel. Max Dir. Intent. máx 5 min.
00:05 6.4 93.4 2.3 W 2.3 WSW 0.0
00:10 6.5 93.4 0.4 SSE 2.8 SW 0.0
00:15 6.5 93.9 0.3 WSW 1.8 W 0.0
00:20 6.7 94.3 0.0 NNE 0.0 WSW 0.0
00:25 6.8 94.2 1.3 NNE 2.1 NNE 0.0
00:30 6.9 93.9 0.1 E 1.4 SE 0.0
00:35 6.8 93.7 0.0 NNE 0.0 ENE 0.0
00:40 6.7 94.0 0.3 WNW 1.8 W 0.0
00:45 6.8 94.2 0.5 SW 2.1 SW 0.0
00:50 6.9 94.3 1.7 WSW 3.9 SSW 0.0
00:55 6.9 93.5 3.1 WSW 5.3 WSW 0.0
01:00 7.0 93.1 2.4 WSW 3.9 WSW 0.0
01:05 7.1 93.0 0.6 SW 4.2 SSW 0.0
01:10 7.2 93.1 0.0 NNE 0.0 WNW 0.0
01:15 7.2 93.0 1.8 NE 4.6 NE 0.0
01:20 7.1 92.5 2.5 NNW 4.9 NNE 0.0
01:25 6.9 92.9 1.7 NNW 2.8 N 0.0
01:30 6.7 92.7 1.4 NW 3.2 NW 0.0
01:35 6.5 92.9 2.0 W 3.5 W 0.0
01:40 6.4 93.4 2.4 WSW 4.2 WSW 0.0
01:45 6.3 93.3 0.8 WSW 2.8 SW 0.0
01:50 6.2 93.0 0.3 SW 2.5 SW 0.0
01:55 6.1 93.3 0.3 WSW 2.5 WSW 0.0
02:00 6.0 93.3 0.7 SW 2.1 SSW 0.0
02:05 5.9 93.4 1.6 NNW 5.3 N 0.0
02:10 5.7 92.9 2.8 NNW 4.9 NNW 0.0
02:15 5.6 92.7 2.7 NNW 6.0 N 0.0
02:20 5.5 92.8 1.7 NNW 4.9 NW 0.0
02:25 5.5 93.1 0.5 SW 2.5 WSW 0.0
02:30 5.5 93.0 0.1 WSW 1.4 W 0.0
02:35 5.4 92.8 0.0 NNE 0.0 SSW 0.0
02:40 5.4 92.5 0.5 N 2.5 N 0.0
02:45 5.4 92.9 0.8 SW 2.8 SW 0.0
02:50 5.5 93.3 0.1 S 1.8 S 0.0
02:55 5.5 92.7 2.2 NNW 4.2 NNW 0.0
03:00 5.4 92.3 0.9 NNW 3.2 NNW 0.0
03:05 5.3 92.3 0.2 S 1.8 S 0.0
03:10 5.3 92.2 1.3 NNW 4.2 N 0.0
03:15 5.3 92.2 0.9 NNE 2.1 N 0.0
03:20 5.2 92.3 0.7 WSW 2.1 WSW 0.0
03:25 5.2 92.5 0.1 NNE 1.4 N 0.0
03:30 5.2 92.1 0.0 S 1.1 S 0.0
03:35 5.3 91.6 1.0 NNW 3.5 NNW 0.0
03:40 5.3 91.2 0.1 NE 1.4 NE 0.0
03:45 5.3 91.9 1.0 WSW 2.1 WSW 0.0
03:50 5.1 91.7 0.0 W 1.1 W 0.0
03:55 5.1 92.0 0.7 SW 2.5 S 0.0
04:00 5.0 91.7 1.5 NNE 3.9 NNE 0.0
04:05 4.9 91.7 0.7 NW 2.8 N 0.0
04:10 4.8 92.0 0.4 SW 2.8 SW 0.0
04:15 4.8 92.6 1.5 WSW 3.5 WSW 0.0
04:20 4.8 92.3 0.3 W 1.8 WSW 0.0
04:25 4.8 92.2 1.3 WSW 2.5 WSW 0.0
04:30 4.8 92.5 1.3 SW 2.5 SW 0.0
04:35 4.8 92.5 0.5 NNW 2.8 NNW 0.0
04:40 4.9 92.1 1.9 NNW 3.9 NNW 0.0
04:45 4.9 92.1 1.3 NNW 3.9 NW 0.0
04:50 5.0 91.9 0.4 SSW 2.1 S 0.0
04:55 5.0 92.0 1.7 SW 2.5 SW 0.0
05:00 5.1 91.6 1.8 W 3.2 W 0.0
05:05 5.2 91.5 2.1 WSW 3.2 W 0.0
05:10 5.2 91.1 1.5 WSW 3.2 WSW 0.0
05:15 5.5 90.6 0.7 NE 2.5 NNE 0.0
05:20 5.8 90.4 0.0 NNE 0.0 ENE 0.0
05:25 5.8 89.9 0.1 SE 1.4 SE 0.0
05:30 5.5 89.4 0.6 SW 2.1 WSW 0.0
05:35 5.6 89.4 0.0 SW 1.1 SW 0.0
05:40 5.7 89.8 0.0 NNE 0.0 SW 0.0
05:45 5.8 89.7 0.0 SW 1.1 SW 0.0
05:50 5.9 89.5 0.0 NE 1.4 NE 0.0
05:55 6.0 88.9 0.3 NNE 2.8 N 0.0
06:00 6.1 89.2 2.1 N 3.2 NNW 0.0
06:05 6.2 88.2 2.8 NNW 3.9 N 0.0
06:10 6.3 86.9 2.8 N 3.9 N 0.0
06:15 6.6 86.6 1.9 ENE 3.9 SSE 0.0
06:20 6.7 86.3 1.0 SSW 3.5 SW 0.0
06:25 6.7 86.0 2.4 SSW 3.9 S 0.0
06:30 6.7 85.1 1.6 WSW 3.2 WSW 0.0
06:35 7.2 84.7 1.1 S 3.2 S 0.0
06:40 7.6 84.0 1.4 SSE 2.5 S 0.0
06:45 7.8 82.9 0.2 S 2.1 S 0.0
06:50 8.1 82.1 0.1 E 1.4 E 0.0
06:55 8.4 82.3 2.5 SE 4.2 SSE 0.0
07:00 8.4 81.5 0.5 SE 3.5 SE 0.0
07:05 8.2 80.0 0.2 ENE 2.1 ENE 0.0
07:10 8.2 78.4 0.8 SSE 4.6 SSE 0.0
07:15 8.5 78.4 1.0 SSW 4.6 S 0.0
07:20 8.6 77.0 0.6 ESE 2.8 SE 0.0
07:25 8.9 78.4 1.8 E 3.5 ENE 0.0
07:30 8.9 78.9 2.9 ENE 5.3 E 0.0
07:35 9.2 77.7 3.4 SSE 6.0 S 0.0
07:40 9.1 77.7 0.9 ENE 4.2 NE 0.0
07:45 9.7 77.6 2.8 E 5.6 E 0.0
07:50 9.8 74.4 3.4 ENE 6.0 ENE 0.0
07:55 10.1 72.7 3.2 ESE 6.4 E 0.0
08:00 10.6 72.1 3.7 SSE 7.4 SSE 0.0
08:05 10.7 71.3 1.8 E 4.9 E 0.0
08:10 10.8 69.5 1.0 ESE 3.9 SSE 0.0
08:15 11.1 68.7 1.2 SE 4.6 S 0.0
08:20 11.4 68.5 2.7 SE 6.0 ESE 0.0
08:25 11.6 66.0 2.8 SE 5.6 SSE 0.0
08:30 11.6 64.9 2.1 SE 4.2 SE 0.0
08:35 11.9 65.0 3.5 SE 6.4 SSE 0.0
08:40 12.0 66.0 4.1 SE 6.7 SSE 0.0
08:45 12.0 65.3 5.5 SSE 8.5 SSE 0.0
08:50 12.2 65.4 5.9 SE 9.5 SE 0.0
08:55 12.6 66.5 6.3 SE 12.7 SSE 0.0
09:00 12.7 65.2 5.5 SE 10.6 SSE 0.0
09:05 12.6 62.7 2.5 SSE 5.3 SE 0.0
09:10 13.1 63.3 4.6 SE 8.5 ESE 0.0
09:15 13.4 63.0 6.1 SE 14.1 SE 0.0
09:20 13.3 62.3 4.8 E 9.5 SE 0.0
09:25 13.3 63.2 4.2 ENE 9.9 SE 0.0
09:30 13.4 63.2 5.3 SE 9.5 SE 0.0
09:35 13.9 61.7 3.0 SE 9.2 SSE 0.0
09:40 14.1 60.7 3.9 ENE 8.1 ENE 0.0
09:45 14.0 61.4 3.8 E 8.8 ESE 0.0
09:50 14.4 59.2 2.6 ESE 7.4 SE 0.0
09:55 14.2 60.1 4.5 E 10.2 ESE 0.0
10:00 14.4 60.9 7.9 SE 16.6 S 0.0
10:05 14.4 59.4 10.8 S 16.6 SE 0.0
10:10 14.1 61.8 8.7 SSE 15.5 SE 0.0
10:15 14.2 59.9 10.0 SSE 16.2 SSE 0.0
10:20 14.1 59.9 9.1 SSE 16.2 SE 0.0
10:25 14.1 61.2 8.9 SSE 14.5 SSE 0.0
10:30 13.9 61.9 9.3 SSE 16.6 SSE 0.0
10:35 13.9 62.9 10.7 SSE 19.4 SE 0.0
10:40 13.7 64.5 11.3 SSE 25.4 SSE 0.0
10:45 13.5 65.2 9.7 SSE 17.6 SE 0.0
10:50 13.4 64.5 8.4 SSE 13.8 SE 0.0
10:55 13.4 65.7 7.4 SSW 15.2 S 0.0
11:00 13.6 65.2 8.9 SSW 16.2 SW 0.0
11:05 13.8 62.6 6.6 SSW 17.3 SW 0.0
11:10 13.8 61.5 5.6 S 10.6 SE 0.0
11:15 14.0 59.6 7.8 SSE 16.2 ESE 0.0
11:20 13.9 59.4 6.5 SE 15.2 SE 0.0
11:25 13.9 60.7 6.6 S 13.8 SSE 0.0
11:30 14.1 60.2 5.3 SSE 10.9 SSE 0.0
11:35 14.1 58.2 9.8 SSE 16.2 S 0.0
11:40 13.7 59.7 10.7 S 17.6 S 0.0
11:45 13.4 59.6 8.3 SSE 14.1 SSE 0.0
11:50 13.4 61.8 7.4 SE 12.7 SE 0.0
11:55 13.4 62.1 8.5 SSE 16.2 SSE 0.0
12:00 13.4 64.0 10.7 SSE 16.9 SE 0.0
12:05 13.4 64.0 8.5 SSE 15.2 SE 0.0
12:10 13.5 64.3 8.0 S 18.7 SSE 0.0
12:15 13.4 64.3 10.6 SSE 20.1 SE 0.0
12:20 13.3 64.9 9.9 SSE 16.6 S 0.0
12:25 13.2 65.6 9.8 SSE 17.6 SSE 0.0
12:30 13.0 66.2 8.4 SSE 14.5 S 0.0
12:35 12.9 67.7 7.8 S 16.2 SE 0.0
12:40 12.7 67.9 8.4 S 12.4 S 0.0
12:45 12.6 68.8 7.6 S 15.5 S 0.0
12:50 12.7 69.4 8.4 SSW 16.6 S 0.0
12:55 12.6 67.3 7.2 SSE 13.8 SE 0.0
13:00 12.7 65.9 7.8 S 16.6 SE 0.0
13:05 12.6 65.9 3.8 S 8.8 SSE 0.0
13:10 12.6 65.1 7.9 S 10.9 S 0.0
13:15 12.6 65.3 6.4 S 12.0 SSE 0.0
13:20 12.6 66.9 5.2 S 12.4 SSE 0.0
13:25 12.5 66.9 7.8 SSE 15.2 SE 0.0
13:30 12.5 68.3 8.8 SSE 15.2 ESE 0.0
13:35 12.4 68.9 7.3 SSE 15.2 SE 0.0
13:40 12.5 69.6 6.4 SSE 10.6 SE 0.0
13:45 12.7 68.8 7.5 SSE 13.8 SSE 0.0
13:50 12.6 67.3 6.5 SSE 10.6 SE 0.0
13:55 12.6 66.8 6.3 SSE 16.6 SSE 0.0
14:00 12.7 67.4 5.9 SE 17.6 SE 0.0
14:05 12.6 68.2 7.9 S 14.5 SSE 0.0
14:10 12.3 70.1 5.7 SSW 10.6 SSW 0.0
14:15 12.1 69.7 4.6 SSW 9.9 WSW 0.0
14:20 11.9 69.7 3.2 SSE 6.0 SW 0.0
14:25 12.0 70.3 3.0 SE 6.7 S 0.0
14:30 11.9 68.8 0.8 ENE 2.1 ENE 0.0
14:35 11.9 69.4 2.1 ENE 3.9 ENE 0.0
14:40 11.9 70.0 2.5 ESE 5.3 ESE 0.0
14:45 12.1 69.2 3.1 SE 5.6 SE 0.0
14:50 12.1 70.0 3.6 SSE 5.3 SSE 0.0
14:55 11.9 70.6 2.1 S 3.5 ESE 0.0
15:00 11.8 69.9 3.5 S 4.6 S 0.0
15:05 11.8 72.0 3.8 SSE 5.6 S 0.0
15:10 11.8 73.5 2.9 SSE 7.4 SE 0.0
15:15 11.6 75.0 2.7 SSE 6.0 S 0.0
15:20 11.5 75.7 1.0 SSW 2.8 SSW 0.0
15:25 11.3 76.3 0.0 WSW 1.1 SW 0.0
15:30 11.2 76.0 1.5 S 5.6 S 0.0
15:35 11.2 76.8 5.2 SSE 9.9 S 0.0
15:40 11.2 78.1 7.6 SSE 13.8 SSE 0.0
15:45 11.0 79.3 7.0 SSW 15.2 S 0.0
15:50 11.0 78.5 7.6 SSW 15.9 S 0.0
15:55 11.1 78.0 7.5 S 13.8 SW 0.0
16:00 11.1 78.5 6.9 S 16.2 SSE 0.0
16:05 11.1 78.2 7.1 SSW 18.7 S 0.0
16:10 11.0 78.5 8.5 SSW 16.2 S 0.0
16:15 10.9 78.5 6.1 SSW 11.3 SSE 0.0
16:20 10.8 78.3 5.5 SSW 17.6 WSW 0.0
16:25 10.8 78.4 8.4 SW 18.4 SW 0.0
16:30 10.7 79.4 8.1 S 17.6 SSE 0.0
16:35 10.6 79.7 8.0 S 18.4 SSE 0.0
16:40 10.5 82.3 4.9 SSE 9.2 SE 0.3
16:45 10.2 85.1 5.8 SSE 10.6 SSE 0.5
16:50 9.9 87.7 6.1 SSE 11.6 SE 0.7
16:55 9.6 89.7 4.5 SSE 9.5 ESE 0.4
17:00 9.5 90.8 1.6 SSE 5.3 SE 0.3
17:05 9.4 91.9 4.0 S 8.8 S 0.4
17:10 9.3 92.5 2.0 SSE 6.0 SE 0.2
17:15 9.2 93.1 2.3 SSE 4.6 SSE 0.3
17:20 9.2 93.7 4.4 SSE 12.0 SSE 0.4
17:25 8.9 92.8 4.0 SSW 10.6 SSE 0.5
17:30 8.7 93.0 0.7 N 2.5 N 0.3
17:35 8.5 93.6 1.0 N 2.8 N 0.4
17:40 8.7 94.4 0.0 NNE 0.0 NE 0.3
17:45 8.7 94.0 0.3 ENE 3.2 ENE 0.4
17:50 8.6 94.1 0.2 NNW 1.4 NNW 0.4
17:55 8.4 94.0 0.5 W 2.1 W 0.5
18:00 8.3 94.2 0.6 NE 3.5 NE 0.4
18:05 8.3 94.8 0.5 NNE 2.8 NE 0.3
18:10 8.3 94.7 0.1 NNE 2.1 NNE 0.4
18:15 8.3 94.5 0.0 N 1.8 NNE 0.6
18:20 8.1 94.1 1.1 NW 3.2 WNW 0.3
18:25 7.9 94.3 2.0 NNW 5.3 ESE 0.2
18:30 7.7 93.6 1.4 W 4.2 WSW 0.3
18:35 7.5 93.9 2.9 WSW 4.6 WSW 0.1
18:40 7.5 94.5 1.0 W 3.9 SW 0.1
18:45 7.6 94.2 1.0 N 4.2 NNE 0.0
18:50 7.5 93.9 0.5 SW 3.2 SSW 0.1
18:55 7.4 94.3 0.4 S 3.2 SE 0.0
19:00 7.4 94.3 0.7 ESE 3.5 ESE 0.0
19:05 7.4 94.5 0.5 SSE 4.2 SSE 0.0
19:10 7.3 94.5 2.4 NNW 4.6 NNW 0.1
19:15 7.2 95.0 2.1 N 4.9 N 0.0
19:20 7.3 94.8 1.6 WNW 3.2 N 0.0
19:25 7.2 94.4 2.2 SW 6.4 WSW 0.0
19:30 7.1 93.9 2.7 WNW 6.0 N 0.0
19:35 7.1 93.8 2.5 WNW 6.4 WSW 0.0
19:40 7.1 94.2 1.5 NE 4.2 NNW 0.0
19:45 7.1 94.2 3.3 WNW 6.7 WNW 0.0
19:50 7.1 94.4 2.7 SSE 6.0 SSE 0.0
19:55 7.2 94.8 3.7 NNW 5.6 NNW 0.0
20:00 7.2 94.7 1.5 NW 3.5 NW 0.0
20:05 7.1 94.7 2.2 SSW 4.9 SE 0.1
20:10 7.1 95.0 2.0 W 4.2 WNW 0.0
20:15 7.1 95.0 0.5 SW 1.8 WSW 0.0
20:20 7.2 95.3 1.3 WSW 2.8 WSW 0.0
20:25 7.2 95.2 0.0 ENE 1.1 ENE 0.0
20:30 7.1 95.2 0.4 ENE 2.8 ENE 0.1
20:35 7.2 95.7 1.4 ENE 4.6 ENE 0.0
20:40 7.3 95.6 0.5 N 2.5 NNE 0.1
20:45 7.3 95.6 1.4 NNE 3.5 N 0.0
20:50 7.2 95.4 0.7 NNE 3.2 NNE 0.0
20:55 7.1 95.3 2.0 N 4.2 NNE 0.1
Máxima 14.4 95.7 11.3 SSE 25.4 SSE 0.7
Mínima 4.8 58.2
Total 9.6